Main page
METAR-TAF:

METAR-TAF

Airports :

Gibraltar, Gibraltar

Gibraltar International Airport

latitude: 36-09N, longitude: 005-21W, elevation: 5 m

Current weather observation

The report was made 59 minutes ago, at 02:50 UTC
Wind 6 kt from the East
Temperature 19°C
Humidity 73%
Pressure 1019 hPa
Visibility 10 km or more

METAR: LXGB 200250Z AUTO 08006KT 9999 // NCD 19/14 Q1019

Time: 05:49 (03:49 UTC)

Forecast

The report was made 11 hours and 8 minutes ago, at 16:41 UTC
Forecast valid from 19 at 18 UTC to 19 at 22 UTC
Wind 10 kt from the South/Southwest
Visibility 10 km or more
no clouds below 1500 m and no cumulonimbus
Becoming
from 19 at 18 UTC to 19 at 21 UTC
Wind 3 kt from variable directions

TAF: LXGB 191641Z 1918/1922 20010KT CAVOK BECMG 1918/1921 VRB03KT

Weather observations and forecasts of more than 4000 airports (METAR and TAF reports).

The available stations are represented by yellow and red dots on the map.

Hover mouse over dot to see the name of the station.

Then click to see weather observations and forecasts.

To change the map : click on the green buttons with a black cross to zoom in, on the green button with a dash to zoom out, or on the green arrows for adjacent maps.


METAR-TAF: